sensor_id;sensor_type;location;lat;lon;timestamp;pressure;altitude;pressure_sealevel;temperature;humidity
58385;BME280;44185;47.844;8.966;2023-02-16T00:00:40;97255.06;;;-4.39;100.00
58385;BME280;44185;47.844;8.966;2023-02-16T00:03:09;97248.88;;;-4.24;100.00
58385;BME280;44185;47.844;8.966;2023-02-16T00:05:36;97242.78;;;-4.18;100.00
58385;BME280;44185;47.844;8.966;2023-02-16T00:08:01;97258.31;;;-4.17;100.00
58385;BME280;44185;47.844;8.966;2023-02-16T00:10:30;97252.34;;;-4.27;100.00
58385;BME280;44185;47.844;8.966;2023-02-16T00:12:57;97256.66;;;-4.27;100.00
58385;BME280;44185;47.844;8.966;2023-02-16T00:15:22;97254.97;;;-4.30;100.00
58385;BME280;44185;47.844;8.966;2023-02-16T00:17:49;97251.50;;;-4.29;100.00
58385;BME280;44185;47.844;8.966;2023-02-16T00:20:15;97254.06;;;-4.27;100.00
58385;BME280;44185;47.844;8.966;2023-02-16T00:22:41;97254.13;;;-4.32;100.00
58385;BME280;44185;47.844;8.966;2023-02-16T00:25:07;97255.91;;;-4.40;100.00
58385;BME280;44185;47.844;8.966;2023-02-16T00:27:33;97253.38;;;-4.42;100.00
58385;BME280;44185;47.844;8.966;2023-02-16T00:29:59;97265.34;;;-4.33;100.00
58385;BME280;44185;47.844;8.966;2023-02-16T00:32:25;97265.22;;;-4.20;100.00
58385;BME280;44185;47.844;8.966;2023-02-16T00:34:51;97273.00;;;-4.24;100.00
58385;BME280;44185;47.844;8.966;2023-02-16T00:37:17;97270.53;;;-4.33;100.00
58385;BME280;44185;47.844;8.966;2023-02-16T00:39:43;97262.91;;;-4.50;100.00
58385;BME280;44185;47.844;8.966;2023-02-16T00:42:13;97268.16;;;-4.61;100.00
58385;BME280;44185;47.844;8.966;2023-02-16T00:44:43;97283.66;;;-4.58;100.00
58385;BME280;44185;47.844;8.966;2023-02-16T00:47:16;97277.66;;;-4.63;100.00
58385;BME280;44185;47.844;8.966;2023-02-16T00:49:42;97268.97;;;-4.56;100.00
58385;BME280;44185;47.844;8.966;2023-02-16T00:52:23;97270.63;;;-4.44;100.00
58385;BME280;44185;47.844;8.966;2023-02-16T00:54:51;97270.63;;;-4.44;100.00
58385;BME280;44185;47.844;8.966;2023-02-16T00:57:17;97272.47;;;-4.60;100.00
58385;BME280;44185;47.844;8.966;2023-02-16T00:59:44;97270.72;;;-4.58;100.00
58385;BME280;44185;47.844;8.966;2023-02-16T01:02:10;97264.75;;;-4.65;100.00
58385;BME280;44185;47.844;8.966;2023-02-16T01:04:36;97266.47;;;-4.64;100.00
58385;BME280;44185;47.844;8.966;2023-02-16T01:07:01;97271.72;;;-4.75;100.00
58385;BME280;44185;47.844;8.966;2023-02-16T01:09:32;97265.81;;;-4.93;100.00
58385;BME280;44185;47.844;8.966;2023-02-16T01:11:58;97270.13;;;-4.92;100.00
58385;BME280;44185;47.844;8.966;2023-02-16T01:14:24;97277.78;;;-4.82;100.00
58385;BME280;44185;47.844;8.966;2023-02-16T01:16:49;97272.63;;;-4.81;100.00
58385;BME280;44185;47.844;8.966;2023-02-16T01:19:15;97268.28;;;-4.74;100.00
58385;BME280;44185;47.844;8.966;2023-02-16T01:21:40;97275.00;;;-4.52;100.00
58385;BME280;44185;47.844;8.966;2023-02-16T01:24:06;97257.84;;;-4.60;100.00
58385;BME280;44185;47.844;8.966;2023-02-16T01:26:37;97264.84;;;-4.73;100.00
58385;BME280;44185;47.844;8.966;2023-02-16T01:29:03;97259.72;;;-4.85;100.00
58385;BME280;44185;47.844;8.966;2023-02-16T01:31:28;97260.56;;;-4.80;100.00
58385;BME280;44185;47.844;8.966;2023-02-16T01:33:54;97254.44;;;-4.70;100.00
58385;BME280;44185;47.844;8.966;2023-02-16T01:36:22;97250.09;;;-4.63;100.00
58385;BME280;44185;47.844;8.966;2023-02-16T01:38:48;97252.69;;;-4.63;100.00
58385;BME280;44185;47.844;8.966;2023-02-16T01:41:17;97247.66;;;-4.82;100.00
58385;BME280;44185;47.844;8.966;2023-02-16T01:43:49;97244.09;;;-4.66;100.00
58385;BME280;44185;47.844;8.966;2023-02-16T01:46:19;97241.56;;;-4.74;100.00
58385;BME280;44185;47.844;8.966;2023-02-16T01:48:45;97251.09;;;-4.83;100.00
58385;BME280;44185;47.844;8.966;2023-02-16T01:51:14;97245.09;;;-4.85;100.00
58385;BME280;44185;47.844;8.966;2023-02-16T01:53:43;97246.06;;;-4.98;100.00
58385;BME280;44185;47.844;8.966;2023-02-16T01:56:20;97248.56;;;-4.87;100.00
58385;BME280;44185;47.844;8.966;2023-02-16T01:58:54;97252.84;;;-4.82;100.00
58385;BME280;44185;47.844;8.966;2023-02-16T02:01:38;97252.91;;;-4.89;100.00
58385;BME280;44185;47.844;8.966;2023-02-16T02:04:18;97252.00;;;-4.84;100.00
58385;BME280;44185;47.844;8.966;2023-02-16T02:06:45;97243.44;;;-4.92;100.00
58385;BME280;44185;47.844;8.966;2023-02-16T02:09:13;97240.00;;;-4.91;100.00
58385;BME280;44185;47.844;8.966;2023-02-16T02:11:44;97243.44;;;-4.92;100.00
58385;BME280;44185;47.844;8.966;2023-02-16T02:14:15;97241.72;;;-4.92;100.00
58385;BME280;44185;47.844;8.966;2023-02-16T02:16:52;97242.59;;;-4.93;100.00
58385;BME280;44185;47.844;8.966;2023-02-16T02:19:18;97231.31;;;-4.81;100.00
58385;BME280;44185;47.844;8.966;2023-02-16T02:22:00;97233.09;;;-4.86;100.00
58385;BME280;44185;47.844;8.966;2023-02-16T02:24:56;97223.63;;;-4.90;100.00
58385;BME280;44185;47.844;8.966;2023-02-16T02:27:27;97226.97;;;-4.80;100.00
58385;BME280;44185;47.844;8.966;2023-02-16T02:29:59;97234.75;;;-4.78;100.00
58385;BME280;44185;47.844;8.966;2023-02-16T02:32:38;97234.81;;;-4.89;100.00
58385;BME280;44185;47.844;8.966;2023-02-16T02:35:17;97224.44;;;-4.83;100.00
58385;BME280;44185;47.844;8.966;2023-02-16T02:37:48;97228.66;;;-4.73;100.00
58385;BME280;44185;47.844;8.966;2023-02-16T02:40:24;97220.00;;;-4.69;100.00
58385;BME280;44185;47.844;8.966;2023-02-16T02:42:58;97224.38;;;-4.75;100.00
58385;BME280;44185;47.844;8.966;2023-02-16T02:45:28;97224.38;;;-4.75;100.00
58385;BME280;44185;47.844;8.966;2023-02-16T02:47:56;97220.09;;;-4.78;100.00
58385;BME280;44185;47.844;8.966;2023-02-16T02:50:31;97227.91;;;-4.84;100.00
58385;BME280;44185;47.844;8.966;2023-02-16T02:53:04;97226.25;;;-4.95;100.00
58385;BME280;44185;47.844;8.966;2023-02-16T02:55:31;97221.06;;;-4.92;100.00
58385;BME280;44185;47.844;8.966;2023-02-16T02:58:00;97221.88;;;-4.88;100.00
58385;BME280;44185;47.844;8.966;2023-02-16T03:00:29;97218.44;;;-4.87;100.00
58385;BME280;44185;47.844;8.966;2023-02-16T03:02:58;97224.44;;;-4.83;100.00
58385;BME280;44185;47.844;8.966;2023-02-16T03:05:27;97221.00;;;-4.81;100.00
58385;BME280;44185;47.844;8.966;2023-02-16T03:07:59;97221.03;;;-4.87;100.00
58385;BME280;44185;47.844;8.966;2023-02-16T03:10:27;97219.34;;;-4.91;100.00
58385;BME280;44185;47.844;8.966;2023-02-16T03:12:53;97228.84;;;-4.98;100.00
58385;BME280;44185;47.844;8.966;2023-02-16T03:15:23;97233.22;;;-5.09;100.00
58385;BME280;44185;47.844;8.966;2023-02-16T03:17:50;97240.97;;;-5.09;100.00
58385;BME280;44185;47.844;8.966;2023-02-16T03:20:18;97236.69;;;-5.10;100.00
58385;BME280;44185;47.844;8.966;2023-02-16T03:22:44;97236.63;;;-5.03;100.00
58385;BME280;44185;47.844;8.966;2023-02-16T03:25:10;97234.00;;;-4.95;100.00
58385;BME280;44185;47.844;8.966;2023-02-16T03:27:40;97228.81;;;-4.88;100.00
58385;BME280;44185;47.844;8.966;2023-02-16T03:30:07;97228.72;;;-4.82;100.00
58385;BME280;44185;47.844;8.966;2023-02-16T03:32:36;97220.16;;;-4.84;100.00
58385;BME280;44185;47.844;8.966;2023-02-16T03:35:02;97221.06;;;-4.92;100.00
58385;BME280;44185;47.844;8.966;2023-02-16T03:37:27;97222.81;;;-4.98;100.00
58385;BME280;44185;47.844;8.966;2023-02-16T03:39:53;97221.06;;;-4.92;100.00
58385;BME280;44185;47.844;8.966;2023-02-16T03:42:19;97222.72;;;-4.84;100.00
58385;BME280;44185;47.844;8.966;2023-02-16T03:44:46;97225.38;;;-4.92;100.00
58385;BME280;44185;47.844;8.966;2023-02-16T03:47:11;97233.16;;;-5.02;100.00
58385;BME280;44185;47.844;8.966;2023-02-16T03:49:38;97234.91;;;-5.04;100.00
58385;BME280;44185;47.844;8.966;2023-02-16T03:52:04;97237.50;;;-5.05;100.00
58385;BME280;44185;47.844;8.966;2023-02-16T03:54:29;97245.38;;;-5.24;100.00
58385;BME280;44185;47.844;8.966;2023-02-16T03:56:55;97241.94;;;-5.28;100.00
58385;BME280;44185;47.844;8.966;2023-02-16T03:59:20;97246.25;;;-5.27;100.00
58385;BME280;44185;47.844;8.966;2023-02-16T04:01:46;97244.53;;;-5.26;100.00
58385;BME280;44185;47.844;8.966;2023-02-16T04:04:11;97260.06;;;-5.32;100.00
58385;BME280;44185;47.844;8.966;2023-02-16T04:06:38;97246.28;;;-5.28;100.00
58385;BME280;44185;47.844;8.966;2023-02-16T04:09:03;97246.22;;;-5.20;100.00
58385;BME280;44185;47.844;8.966;2023-02-16T04:11:29;97251.31;;;-5.11;100.00
58385;BME280;44185;47.844;8.966;2023-02-16T04:13:54;97255.63;;;-5.13;100.00
58385;BME280;44185;47.844;8.966;2023-02-16T04:16:19;97256.44;;;-5.05;100.00
58385;BME280;44185;47.844;8.966;2023-02-16T04:18:45;97254.69;;;-5.01;100.00
58385;BME280;44185;47.844;8.966;2023-02-16T04:21:10;97259.88;;;-5.03;100.00
58385;BME280;44185;47.844;8.966;2023-02-16T04:23:37;97256.47;;;-5.09;100.00
58385;BME280;44185;47.844;8.966;2023-02-16T04:26:03;97268.47;;;-5.04;100.00
58385;BME280;44185;47.844;8.966;2023-02-16T04:28:28;97256.44;;;-5.06;100.00
58385;BME280;44185;47.844;8.966;2023-02-16T04:30:54;97263.34;;;-5.08;100.00
58385;BME280;44185;47.844;8.966;2023-02-16T04:33:19;97259.03;;;-5.06;100.00
58385;BME280;44185;47.844;8.966;2023-02-16T04:35:44;97257.34;;;-5.07;100.00
58385;BME280;44185;47.844;8.966;2023-02-16T04:38:10;97260.72;;;-5.04;100.00
58385;BME280;44185;47.844;8.966;2023-02-16T04:40:37;97266.72;;;-4.97;100.00
58385;BME280;44185;47.844;8.966;2023-02-16T04:43:02;97260.72;;;-5.00;100.00
58385;BME280;44185;47.844;8.966;2023-02-16T04:45:28;97269.28;;;-4.95;100.00
58385;BME280;44185;47.844;8.966;2023-02-16T04:47:53;97266.72;;;-5.02;100.00
58385;BME280;44185;47.844;8.966;2023-02-16T04:50:19;97262.41;;;-4.95;100.00
58385;BME280;44185;47.844;8.966;2023-02-16T04:52:44;97265.84;;;-4.96;100.00
58385;BME280;44185;47.844;8.966;2023-02-16T04:55:10;97268.47;;;-5.02;100.00
58385;BME280;44185;47.844;8.966;2023-02-16T04:57:37;97271.06;;;-5.02;100.00
58385;BME280;44185;47.844;8.966;2023-02-16T05:00:03;97268.47;;;-5.02;100.00
58385;BME280;44185;47.844;8.966;2023-02-16T05:02:29;97258.16;;;-5.02;100.00
58385;BME280;44185;47.844;8.966;2023-02-16T05:04:54;97263.38;;;-5.11;100.00
58385;BME280;44185;47.844;8.966;2023-02-16T05:07:19;97269.44;;;-5.22;100.00
58385;BME280;44185;47.844;8.966;2023-02-16T05:09:45;97265.13;;;-5.20;100.00
58385;BME280;44185;47.844;8.966;2023-02-16T05:12:10;97263.41;;;-5.18;100.00
58385;BME280;44185;47.844;8.966;2023-02-16T05:14:37;97269.44;;;-5.22;100.00
58385;BME280;44185;47.844;8.966;2023-02-16T05:17:03;97267.75;;;-5.23;100.00
58385;BME280;44185;47.844;8.966;2023-02-16T05:19:28;97260.84;;;-5.22;100.00
58385;BME280;44185;47.844;8.966;2023-02-16T05:21:54;97268.63;;;-5.27;100.00
58385;BME280;44185;47.844;8.966;2023-02-16T05:24:19;97270.34;;;-5.29;100.00
58385;BME280;44185;47.844;8.966;2023-02-16T05:26:45;97266.03;;;-5.24;100.00
58385;BME280;44185;47.844;8.966;2023-02-16T05:29:10;97272.88;;;-5.20;100.00
58385;BME280;44185;47.844;8.966;2023-02-16T05:31:37;97283.22;;;-5.25;100.00
58385;BME280;44185;47.844;8.966;2023-02-16T05:34:02;97289.28;;;-5.26;100.00
58385;BME280;44185;47.844;8.966;2023-02-16T05:36:28;97282.34;;;-5.22;100.00
58385;BME280;44185;47.844;8.966;2023-02-16T05:38:53;97284.03;;;-5.16;100.00
58385;BME280;44185;47.844;8.966;2023-02-16T05:41:19;97283.16;;;-5.14;100.00
58385;BME280;44185;47.844;8.966;2023-02-16T05:43:47;97279.72;;;-5.13;100.00
58385;BME280;44185;47.844;8.966;2023-02-16T05:46:13;97284.00;;;-5.11;100.00
58385;BME280;44185;47.844;8.966;2023-02-16T05:48:40;97283.09;;;-5.04;100.00
58385;BME280;44185;47.844;8.966;2023-02-16T05:51:05;97282.19;;;-4.94;100.00
58385;BME280;44185;47.844;8.966;2023-02-16T05:53:30;97284.72;;;-4.91;100.00
58385;BME280;44185;47.844;8.966;2023-02-16T05:55:56;97292.53;;;-4.95;100.00
58385;BME280;44185;47.844;8.966;2023-02-16T05:58:21;97295.09;;;-4.95;100.00
58385;BME280;44185;47.844;8.966;2023-02-16T06:00:47;97299.41;;;-4.99;100.00
58385;BME280;44185;47.844;8.966;2023-02-16T06:03:12;97285.69;;;-5.06;100.00
58385;BME280;44185;47.844;8.966;2023-02-16T06:05:39;97302.91;;;-5.03;100.00
58385;BME280;44185;47.844;8.966;2023-02-16T06:08:05;97295.94;;;-4.90;100.00
58385;BME280;44185;47.844;8.966;2023-02-16T06:10:30;97297.59;;;-4.81;100.00
58385;BME280;44185;47.844;8.966;2023-02-16T06:12:55;97299.28;;;-4.80;100.00
58385;BME280;44185;47.844;8.966;2023-02-16T06:15:21;97308.69;;;-4.66;100.00
58385;BME280;44185;47.844;8.966;2023-02-16T06:17:46;97308.66;;;-4.63;100.00
58385;BME280;44185;47.844;8.966;2023-02-16T06:20:12;97308.63;;;-4.60;100.00
58385;BME280;44185;47.844;8.966;2023-02-16T06:22:39;97329.28;;;-4.54;100.00
58385;BME280;44185;47.844;8.966;2023-02-16T06:25:04;97319.78;;;-4.53;100.00
58385;BME280;44185;47.844;8.966;2023-02-16T06:27:30;97324.13;;;-4.57;100.00
58385;BME280;44185;47.844;8.966;2023-02-16T06:29:55;97329.28;;;-4.54;100.00
58385;BME280;44185;47.844;8.966;2023-02-16T06:32:21;97324.03;;;-4.44;100.00
58385;BME280;44185;47.844;8.966;2023-02-16T06:34:46;97323.97;;;-4.40;100.00
58385;BME280;44185;47.844;8.966;2023-02-16T06:37:11;97329.16;;;-4.38;100.00
58385;BME280;44185;47.844;8.966;2023-02-16T06:39:38;97331.66;;;-4.32;100.00
58385;BME280;44185;47.844;8.966;2023-02-16T06:42:04;97326.47;;;-4.29;100.00
58385;BME280;44185;47.844;8.966;2023-02-16T06:44:29;97329.00;;;-4.22;100.00
58385;BME280;44185;47.844;8.966;2023-02-16T06:46:55;97328.13;;;-4.21;100.00
58385;BME280;44185;47.844;8.966;2023-02-16T06:49:20;97335.09;;;-4.28;100.00
58385;BME280;44185;47.844;8.966;2023-02-16T06:51:46;97332.41;;;-4.19;100.00
58385;BME280;44185;47.844;8.966;2023-02-16T06:54:13;97326.38;;;-4.18;100.00
58385;BME280;44185;47.844;8.966;2023-02-16T06:56:40;97343.56;;;-4.12;100.00
58385;BME280;44185;47.844;8.966;2023-02-16T06:59:05;97339.22;;;-4.08;100.00
58385;BME280;44185;47.844;8.966;2023-02-16T07:01:31;97337.53;;;-4.13;100.00
58385;BME280;44185;47.844;8.966;2023-02-16T07:03:56;97345.25;;;-4.06;100.00
58385;BME280;44185;47.844;8.966;2023-02-16T07:06:23;97346.03;;;-3.99;100.00
58385;BME280;44185;47.844;8.966;2023-02-16T07:08:49;97345.25;;;-4.11;100.00
58385;BME280;44185;47.844;8.966;2023-02-16T07:11:15;97344.44;;;-4.13;100.00
58385;BME280;44185;47.844;8.966;2023-02-16T07:13:42;97340.16;;;-4.14;100.00
58385;BME280;44185;47.844;8.966;2023-02-16T07:16:08;97347.81;;;-4.05;100.00
58385;BME280;44185;47.844;8.966;2023-02-16T07:18:34;97354.59;;;-3.91;100.00
58385;BME280;44185;47.844;8.966;2023-02-16T07:21:00;97348.53;;;-3.90;100.00
58385;BME280;44185;47.844;8.966;2023-02-16T07:23:26;97359.56;;;-3.74;100.00
58385;BME280;44185;47.844;8.966;2023-02-16T07:25:51;97357.84;;;-3.73;100.00
58385;BME280;44185;47.844;8.966;2023-02-16T07:28:17;97364.72;;;-3.69;100.00
58385;BME280;44185;47.844;8.966;2023-02-16T07:30:44;97362.94;;;-3.65;100.00
58385;BME280;44185;47.844;8.966;2023-02-16T07:33:09;97362.13;;;-3.69;100.00
58385;BME280;44185;47.844;8.966;2023-02-16T07:35:35;97368.06;;;-3.59;100.00
58385;BME280;44185;47.844;8.966;2023-02-16T07:38:02;97355.00;;;-3.50;100.00
58385;BME280;44185;47.844;8.966;2023-02-16T07:40:28;97361.03;;;-3.48;100.00
58385;BME280;44185;47.844;8.966;2023-02-16T07:42:53;97354.97;;;-3.47;100.00
58385;BME280;44185;47.844;8.966;2023-02-16T07:45:19;97361.06;;;-3.49;100.00
58385;BME280;44185;47.844;8.966;2023-02-16T07:47:45;97366.38;;;-3.65;100.00
58385;BME280;44185;47.844;8.966;2023-02-16T07:50:11;97359.53;;;-3.71;100.00
58385;BME280;44185;47.844;8.966;2023-02-16T07:52:36;97355.19;;;-3.65;100.00
58385;BME280;44185;47.844;8.966;2023-02-16T07:55:02;97361.06;;;-3.51;100.00
58385;BME280;44185;47.844;8.966;2023-02-16T07:57:28;97362.66;;;-3.37;100.00
58385;BME280;44185;47.844;8.966;2023-02-16T07:59:54;97361.66;;;-3.28;100.00
58385;BME280;44185;47.844;8.966;2023-02-16T08:02:23;97359.38;;;-3.55;100.00
58385;BME280;44185;47.844;8.966;2023-02-16T08:04:50;97359.19;;;-3.36;100.00
58385;BME280;44185;47.844;8.966;2023-02-16T08:07:16;97358.19;;;-3.24;100.00
58385;BME280;44185;47.844;8.966;2023-02-16T08:09:42;97364.03;;;-3.09;100.00
58385;BME280;44185;47.844;8.966;2023-02-16T08:12:08;97377.72;;;-2.98;100.00
58385;BME280;44185;47.844;8.966;2023-02-16T08:14:36;97375.97;;;-2.96;100.00
58385;BME280;44185;47.844;8.966;2023-02-16T08:17:02;97382.06;;;-3.00;100.00
58385;BME280;44185;47.844;8.966;2023-02-16T08:19:28;97379.53;;;-3.08;100.00
58385;BME280;44185;47.844;8.966;2023-02-16T08:21:56;97379.50;;;-3.03;100.00
58385;BME280;44185;47.844;8.966;2023-02-16T08:24:22;97381.09;;;-2.93;100.00
58385;BME280;44185;47.844;8.966;2023-02-16T08:26:47;97376.59;;;-2.80;100.00
58385;BME280;44185;47.844;8.966;2023-02-16T08:29:13;97385.25;;;-2.79;100.00
58385;BME280;44185;47.844;8.966;2023-02-16T08:31:38;97387.78;;;-2.76;100.00
58385;BME280;44185;47.844;8.966;2023-02-16T08:34:04;97382.59;;;-2.76;100.00
58385;BME280;44185;47.844;8.966;2023-02-16T08:36:31;97388.78;;;-2.85;100.00
58385;BME280;44185;47.844;8.966;2023-02-16T08:38:59;97386.34;;;-2.99;100.00
58385;BME280;44185;47.844;8.966;2023-02-16T08:41:29;97387.06;;;-2.89;100.00
58385;BME280;44185;47.844;8.966;2023-02-16T08:43:55;97381.06;;;-2.89;100.00
58385;BME280;44185;47.844;8.966;2023-02-16T08:46:20;97386.09;;;-2.80;100.00
58385;BME280;44185;47.844;8.966;2023-02-16T08:48:46;97375.59;;;-2.71;100.00
58385;BME280;44185;47.844;8.966;2023-02-16T08:51:16;97380.06;;;-2.81;100.00
58385;BME280;44185;47.844;8.966;2023-02-16T08:53:42;97377.53;;;-2.85;100.00
58385;BME280;44185;47.844;8.966;2023-02-16T08:56:09;97379.03;;;-2.67;100.00
58385;BME280;44185;47.844;8.966;2023-02-16T08:58:34;97380.53;;;-2.50;100.00
58385;BME280;44185;47.844;8.966;2023-02-16T09:01:03;97375.97;;;-2.34;100.00
58385;BME280;44185;47.844;8.966;2023-02-16T09:03:28;97386.09;;;-2.20;100.00
58385;BME280;44185;47.844;8.966;2023-02-16T09:05:54;97392.97;;;-2.16;100.00
58385;BME280;44185;47.844;8.966;2023-02-16T09:08:19;97393.63;;;-2.04;100.00
58385;BME280;44185;47.844;8.966;2023-02-16T09:10:45;97388.47;;;-2.06;100.00
58385;BME280;44185;47.844;8.966;2023-02-16T09:13:11;97397.13;;;-2.07;100.00
58385;BME280;44185;47.844;8.966;2023-02-16T09:15:37;97394.41;;;-1.99;100.00
58385;BME280;44185;47.844;8.966;2023-02-16T09:18:03;97388.25;;;-1.92;100.00
58385;BME280;44185;47.844;8.966;2023-02-16T09:20:28;97395.22;;;-1.95;100.00
58385;BME280;44185;47.844;8.966;2023-02-16T09:22:54;97385.63;;;-1.90;100.00
58385;BME280;44185;47.844;8.966;2023-02-16T09:25:19;97393.25;;;-1.81;100.00
58385;BME280;44185;47.844;8.966;2023-02-16T09:27:45;97395.88;;;-1.81;100.00
58385;BME280;44185;47.844;8.966;2023-02-16T09:30:13;97394.19;;;-1.83;100.00
58385;BME280;44185;47.844;8.966;2023-02-16T09:32:38;97390.91;;;-1.95;100.00
58385;BME280;44185;47.844;8.966;2023-02-16T09:35:04;97395.09;;;-1.87;100.00
58385;BME280;44185;47.844;8.966;2023-02-16T09:37:31;97394.22;;;-1.88;100.00
58385;BME280;44185;47.844;8.966;2023-02-16T09:39:56;97390.53;;;-1.73;100.00
58385;BME280;44185;47.844;8.966;2023-02-16T09:42:29;97387.06;;;-1.73;100.00
58385;BME280;44185;47.844;8.966;2023-02-16T09:45:03;97385.25;;;-1.68;100.00
58385;BME280;44185;47.844;8.966;2023-02-16T09:47:32;97385.84;;;-1.53;100.00
58385;BME280;44185;47.844;8.966;2023-02-16T09:50:02;97384.97;;;-1.54;100.00
58385;BME280;44185;47.844;8.966;2023-02-16T09:52:34;97388.25;;;-1.42;100.00
58385;BME280;44185;47.844;8.966;2023-02-16T09:55:00;97383.88;;;-1.40;100.00
58385;BME280;44185;47.844;8.966;2023-02-16T09:57:38;97385.34;;;-1.25;100.00
58385;BME280;44185;47.844;8.966;2023-02-16T10:00:16;97378.09;;;-1.10;100.00
58385;BME280;44185;47.844;8.966;2023-02-16T10:02:50;97376.16;;;-0.99;100.00
58385;BME280;44185;47.844;8.966;2023-02-16T10:05:20;97379.72;;;-1.05;100.00
58385;BME280;44185;47.844;8.966;2023-02-16T10:07:55;97382.75;;;-0.84;100.00
58385;BME280;44185;47.844;8.966;2023-02-16T10:10:24;97380.25;;;-0.88;100.00
58385;BME280;44185;47.844;8.966;2023-02-16T10:12:55;97376.84;;;-0.91;100.00
58385;BME280;44185;47.844;8.966;2023-02-16T10:15:24;97381.19;;;-0.91;100.00
58385;BME280;44185;47.844;8.966;2023-02-16T10:17:54;97380.84;;;-0.75;100.00
58385;BME280;44185;47.844;8.966;2023-02-16T10:20:25;97379.19;;;-0.78;100.00
58385;BME280;44185;47.844;8.966;2023-02-16T10:22:54;97378.03;;;-0.66;100.00
58385;BME280;44185;47.844;8.966;2023-02-16T10:25:25;97379.69;;;-0.62;100.00
58385;BME280;44185;47.844;8.966;2023-02-16T10:28:00;97365.28;;;-0.37;100.00
58385;BME280;44185;47.844;8.966;2023-02-16T10:30:30;97371.13;;;-0.29;100.00
58385;BME280;44185;47.844;8.966;2023-02-16T10:33:03;97365.38;;;-0.42;100.00
58385;BME280;44185;47.844;8.966;2023-02-16T10:35:44;97367.72;;;-0.31;100.00
58385;BME280;44185;47.844;8.966;2023-02-16T10:38:13;97365.00;;;0.10;100.00
58385;BME280;44185;47.844;8.966;2023-02-16T10:40:51;97365.28;;;0.33;100.00
58385;BME280;44185;47.844;8.966;2023-02-16T10:43:24;97353.94;;;0.36;100.00
58385;BME280;44185;47.844;8.966;2023-02-16T10:45:56;97350.31;;;0.41;100.00
58385;BME280;44185;47.844;8.966;2023-02-16T10:48:24;97355.38;;;0.48;100.00
58385;BME280;44185;47.844;8.966;2023-02-16T10:50:55;97361.31;;;0.85;100.00
58385;BME280;44185;47.844;8.966;2023-02-16T10:53:32;97366.34;;;1.21;100.00
58385;BME280;44185;47.844;8.966;2023-02-16T10:55:59;97361.69;;;1.60;100.00
58385;BME280;44185;47.844;8.966;2023-02-16T10:58:26;97361.03;;;1.82;100.00
58385;BME280;44185;47.844;8.966;2023-02-16T11:01:02;97360.34;;;1.75;100.00
58385;BME280;44185;47.844;8.966;2023-02-16T11:03:42;97346.66;;;1.96;100.00
58385;BME280;44185;47.844;8.966;2023-02-16T11:06:14;97350.75;;;2.30;100.00
58385;BME280;44185;47.844;8.966;2023-02-16T11:08:46;97345.25;;;2.38;100.00
58385;BME280;44185;47.844;8.966;2023-02-16T11:11:12;97344.34;;;2.39;100.00
58385;BME280;44185;47.844;8.966;2023-02-16T11:13:38;97341.44;;;2.73;100.00
58385;BME280;44185;47.844;8.966;2023-02-16T11:16:07;97328.66;;;2.89;100.00
58385;BME280;44185;47.844;8.966;2023-02-16T11:18:38;97326.06;;;3.11;100.00
58385;BME280;44185;47.844;8.966;2023-02-16T11:21:06;97322.88;;;3.03;100.00
58385;BME280;44185;47.844;8.966;2023-02-16T11:23:33;97319.00;;;3.14;100.00
58385;BME280;44185;47.844;8.966;2023-02-16T11:26:02;97320.06;;;3.32;100.00
58385;BME280;44185;47.844;8.966;2023-02-16T11:28:34;97316.44;;;3.36;100.00
58385;BME280;44185;47.844;8.966;2023-02-16T11:31:04;97319.22;;;3.54;100.00
58385;BME280;44185;47.844;8.966;2023-02-16T11:33:36;97312.34;;;3.29;100.00
58385;BME280;44185;47.844;8.966;2023-02-16T11:36:03;97322.03;;;3.49;100.00
58385;BME280;44185;47.844;8.966;2023-02-16T11:38:42;97312.06;;;3.80;100.00
58385;BME280;44185;47.844;8.966;2023-02-16T11:41:22;97308.25;;;3.66;100.00
58385;BME280;44185;47.844;8.966;2023-02-16T11:43:48;97302.78;;;3.94;100.00
58385;BME280;44185;47.844;8.966;2023-02-16T11:46:15;97294.41;;;3.85;100.00
58385;BME280;44185;47.844;8.966;2023-02-16T11:48:43;97298.50;;;3.70;100.00
58385;BME280;44185;47.844;8.966;2023-02-16T11:51:10;97291.53;;;4.13;100.00
58385;BME280;44185;47.844;8.966;2023-02-16T11:53:37;97290.81;;;4.30;100.00
58385;BME280;44185;47.844;8.966;2023-02-16T11:56:21;97283.28;;;4.43;100.00
58385;BME280;44185;47.844;8.966;2023-02-16T11:59:02;97283.13;;;4.46;100.00
58385;BME280;44185;47.844;8.966;2023-02-16T12:01:39;97269.81;;;4.51;100.00
58385;BME280;44185;47.844;8.966;2023-02-16T12:04:16;97262.91;;;4.69;100.00
58385;BME280;44185;47.844;8.966;2023-02-16T12:06:52;97259.47;;;5.06;100.00
58385;BME280;44185;47.844;8.966;2023-02-16T12:09:30;97259.47;;;5.06;100.00
58385;BME280;44185;47.844;8.966;2023-02-16T12:12:05;97263.63;;;5.29;100.00
58385;BME280;44185;47.844;8.966;2023-02-16T12:14:40;97260.41;;;5.42;100.00
58385;BME280;44185;47.844;8.966;2023-02-16T12:17:18;97245.97;;;5.33;100.00
58385;BME280;44185;47.844;8.966;2023-02-16T12:19:48;97253.88;;;5.68;100.00
58385;BME280;44185;47.844;8.966;2023-02-16T12:22:25;97251.81;;;5.75;100.00
58385;BME280;44185;47.844;8.966;2023-02-16T12:25:02;97254.66;;;6.06;100.00
58385;BME280;44185;47.844;8.966;2023-02-16T12:27:32;97251.66;;;5.96;100.00
58385;BME280;44185;47.844;8.966;2023-02-16T12:30:02;97246.91;;;6.03;100.00
58385;BME280;44185;47.844;8.966;2023-02-16T12:32:49;97250.44;;;6.38;100.00
58385;BME280;44185;47.844;8.966;2023-02-16T12:35:32;97239.72;;;6.59;100.00
58385;BME280;44185;47.844;8.966;2023-02-16T12:38:12;97246.13;;;6.71;100.00
58385;BME280;44185;47.844;8.966;2023-02-16T12:40:52;97232.47;;;6.96;98.61
58385;BME280;44185;47.844;8.966;2023-02-16T12:43:31;97224.75;;;6.43;99.87
58385;BME280;44185;47.844;8.966;2023-02-16T12:46:03;97211.75;;;6.74;100.00
58385;BME280;44185;47.844;8.966;2023-02-16T12:48:37;97211.31;;;6.65;100.00
58385;BME280;44185;47.844;8.966;2023-02-16T12:51:08;97206.31;;;6.61;99.44
58385;BME280;44185;47.844;8.966;2023-02-16T12:53:39;97208.28;;;6.89;97.30
58385;BME280;44185;47.844;8.966;2023-02-16T12:56:08;97209.03;;;7.24;98.06
58385;BME280;44185;47.844;8.966;2023-02-16T12:58:39;97198.22;;;7.29;90.62